createdAt,value
2022-09-23T00:00:18.111Z,60.92
2022-09-23T00:03:45.483Z,61.01
2022-09-23T00:06:51.327Z,60.97
2022-09-23T00:09:56.884Z,60.98
2022-09-23T00:13:02.983Z,61.06
2022-09-23T00:16:09.893Z,61.04
2022-09-23T00:19:15.402Z,60.80
2022-09-23T00:22:20.659Z,60.47
2022-09-23T00:25:27.504Z,60.27
2022-09-23T00:28:33.062Z,60.28
2022-09-23T00:31:38.630Z,60.34
2022-09-23T00:34:48.035Z,60.56
2022-09-23T00:37:53.388Z,60.56
2022-09-23T00:40:59.517Z,60.66
2022-09-23T00:44:18.512Z,60.58
2022-09-23T00:47:26.260Z,60.66
2022-09-23T00:50:35.238Z,60.70
2022-09-23T00:53:40.918Z,62.35
2022-09-23T00:56:46.382Z,63.38
2022-09-23T00:59:52.526Z,61.82
2022-09-23T01:02:58.356Z,62.55
2022-09-23T01:06:03.556Z,65.29
2022-09-23T01:09:09.017Z,65.53
2022-09-23T01:12:26.431Z,64.89
2022-09-23T01:15:38.543Z,64.19
2022-09-23T01:18:47.691Z,63.65
2022-09-23T01:21:55.077Z,63.18
2022-09-23T01:25:10.789Z,62.74
2022-09-23T01:28:36.817Z,62.51
2022-09-23T01:31:45.536Z,62.29
2022-09-23T01:34:55.645Z,62.56
2022-09-23T01:38:10.221Z,62.76
2022-09-23T01:41:25.291Z,63.43
2022-09-23T01:44:33.438Z,63.66
2022-09-23T01:47:41.010Z,63.48
2022-09-23T01:50:59.471Z,63.25
2022-09-23T01:54:08.418Z,63.14
2022-09-23T01:57:18.331Z,62.45
2022-09-23T02:00:24.546Z,62.20
2022-09-23T02:03:32.631Z,61.67
2022-09-23T02:06:41.513Z,61.16
2022-09-23T02:09:50.131Z,61.19
2022-09-23T02:12:59.289Z,61.02
2022-09-23T02:16:06.423Z,61.19
2022-09-23T02:19:14.476Z,61.02
2022-09-23T02:22:21.904Z,60.51
2022-09-23T02:25:34.046Z,60.04
2022-09-23T02:28:43.280Z,60.14
2022-09-23T02:31:54.959Z,60.60
2022-09-23T02:35:04.793Z,60.20
2022-09-23T02:38:17.960Z,60.24
2022-09-23T02:41:27.738Z,60.55
2022-09-23T02:44:33.074Z,60.70
2022-09-23T02:47:40.752Z,60.85
2022-09-23T02:50:47.769Z,61.01
2022-09-23T02:53:56.327Z,61.10
2022-09-23T02:57:02.854Z,60.96
2022-09-23T03:00:09.077Z,61.18
2022-09-23T03:03:23.110Z,61.85
2022-09-23T03:06:30.970Z,61.68
2022-09-23T03:09:38.785Z,61.58
2022-09-23T03:12:53.001Z,61.45
2022-09-23T03:16:02.687Z,61.40
2022-09-23T03:19:16.609Z,61.85
2022-09-23T03:22:24.371Z,62.23
2022-09-23T03:25:33.240Z,62.43
2022-09-23T03:28:39.730Z,62.35
2022-09-23T03:31:46.024Z,62.38
2022-09-23T03:34:52.826Z,62.31
2022-09-23T03:38:02.721Z,62.25
2022-09-23T03:41:10.770Z,61.93
2022-09-23T03:44:17.357Z,61.86
2022-09-23T03:47:22.671Z,62.02
2022-09-23T03:50:28.010Z,62.30
2022-09-23T03:53:33.303Z,62.65
2022-09-23T03:56:38.667Z,62.90
2022-09-23T03:59:44.346Z,62.88
2022-09-23T04:02:50.235Z,62.80
2022-09-23T04:05:55.796Z,62.72
2022-09-23T04:09:01.703Z,62.67
2022-09-23T04:12:07.265Z,62.66
2022-09-23T04:15:13.117Z,62.65
2022-09-23T04:18:18.406Z,62.85
2022-09-23T04:21:23.609Z,62.76
2022-09-23T04:24:29.147Z,62.18
2022-09-23T04:27:37.608Z,61.07
2022-09-23T04:30:44.314Z,61.11
2022-09-23T04:33:49.535Z,60.98
2022-09-23T04:36:54.887Z,60.79
2022-09-23T04:40:00.081Z,60.89
2022-09-23T04:43:05.418Z,61.48
2022-09-23T04:46:11.442Z,62.34
2022-09-23T04:49:17.149Z,61.50
2022-09-23T04:52:22.556Z,60.57
2022-09-23T04:55:27.924Z,60.19
2022-09-23T04:58:34.248Z,59.54
2022-09-23T05:01:39.868Z,57.25
2022-09-23T05:04:45.291Z,59.31
2022-09-23T05:07:50.980Z,61.58
2022-09-23T05:10:59.246Z,66.10
2022-09-23T05:14:04.483Z,69.85
2022-09-23T05:17:09.893Z,67.97
2022-09-23T05:20:15.041Z,65.76
2022-09-23T05:23:20.377Z,64.26
2022-09-23T05:26:26.481Z,63.62
2022-09-23T05:29:31.587Z,62.67
2022-09-23T05:32:36.776Z,62.69
2022-09-23T05:35:47.332Z,62.42
2022-09-23T05:38:52.935Z,61.75
2022-09-23T05:42:00.153Z,61.75
2022-09-23T05:45:07.614Z,61.76
2022-09-23T05:48:12.944Z,61.08
2022-09-23T05:51:19.033Z,60.58
2022-09-23T05:54:24.471Z,59.63
2022-09-23T05:57:30.268Z,57.67
2022-09-23T06:00:35.514Z,57.70
2022-09-23T06:03:40.997Z,60.80
2022-09-23T06:06:46.151Z,63.33
2022-09-23T06:09:51.699Z,69.46
2022-09-23T06:12:57.085Z,69.44
2022-09-23T06:16:03.308Z,69.31
2022-09-23T06:19:09.982Z,69.43
2022-09-23T06:22:17.027Z,69.48
2022-09-23T06:25:23.148Z,69.56
2022-09-23T06:28:30.225Z,68.63
2022-09-23T06:31:35.334Z,67.40
2022-09-23T06:34:50.781Z,66.59
2022-09-23T06:37:58.112Z,66.39
2022-09-23T06:41:04.329Z,65.99
2022-09-23T06:44:09.626Z,65.38
2022-09-23T06:47:15.372Z,65.35
2022-09-23T06:50:20.448Z,65.29
2022-09-23T06:53:26.097Z,65.68
2022-09-23T06:56:34.872Z,65.21
2022-09-23T06:59:43.918Z,64.90
2022-09-23T07:02:49.266Z,64.49
2022-09-23T07:05:56.825Z,64.01
2022-09-23T07:09:03.388Z,63.48
2022-09-23T07:12:09.135Z,63.15
2022-09-23T07:15:15.432Z,62.76
2022-09-23T07:18:23.623Z,62.31
2022-09-23T07:21:28.733Z,62.21
2022-09-23T07:24:34.405Z,61.86
2022-09-23T07:27:40.002Z,61.75
2022-09-23T07:30:55.929Z,61.29
2022-09-23T07:34:03.891Z,61.01
2022-09-23T07:37:09.050Z,60.72
2022-09-23T07:40:14.369Z,60.88
2022-09-23T07:43:19.984Z,60.90
2022-09-23T07:46:26.049Z,60.34
2022-09-23T07:49:31.474Z,57.70
2022-09-23T07:52:38.039Z,56.29
2022-09-23T07:55:43.307Z,57.08
2022-09-23T07:59:04.502Z,57.96
2022-09-23T08:02:15.547Z,65.26
2022-09-23T08:05:20.909Z,65.11
2022-09-23T08:08:27.374Z,61.77
2022-09-23T08:11:33.046Z,60.86
2022-09-23T08:14:38.736Z,60.47
2022-09-23T08:17:44.042Z,59.87
2022-09-23T08:20:49.251Z,59.12
2022-09-23T08:23:54.485Z,58.05
2022-09-23T08:26:59.751Z,58.61
2022-09-23T08:30:05.344Z,64.18
2022-09-23T08:33:11.027Z,64.85
2022-09-23T08:36:16.305Z,62.94
2022-09-23T08:39:22.925Z,58.99
2022-09-23T08:42:32.378Z,56.41
2022-09-23T08:45:38.571Z,61.01
2022-09-23T08:48:45.611Z,60.07
2022-09-23T08:51:54.411Z,56.53
2022-09-23T08:54:59.730Z,58.76
2022-09-23T08:58:26.267Z,58.40
2022-09-23T09:01:35.701Z,57.44
2022-09-23T09:04:44.330Z,60.95
2022-09-23T09:07:50.476Z,66.53
2022-09-23T09:10:58.158Z,63.05
2022-09-23T09:14:06.937Z,60.12
2022-09-23T09:17:13.972Z,56.42
2022-09-23T09:20:23.345Z,57.95
2022-09-23T09:23:32.837Z,54.65
2022-09-23T09:26:39.714Z,61.99
2022-09-23T09:29:49.874Z,63.20
2022-09-23T09:32:59.264Z,60.36
2022-09-23T09:36:09.996Z,56.47
2022-09-23T09:39:16.371Z,55.20
2022-09-23T09:42:26.106Z,57.72
2022-09-23T09:45:38.593Z,60.59
2022-09-23T09:48:50.825Z,61.71
2022-09-23T09:52:09.896Z,62.06
2022-09-23T09:55:25.075Z,54.34
2022-09-23T09:58:34.196Z,52.34
2022-09-23T10:01:39.578Z,55.82
2022-09-23T10:04:44.939Z,58.84
2022-09-23T10:07:50.267Z,60.07
2022-09-23T10:11:01.165Z,56.58
2022-09-23T10:14:09.361Z,59.55
2022-09-23T10:17:16.838Z,56.46
2022-09-23T10:20:22.089Z,54.30
2022-09-23T10:23:29.107Z,59.16
2022-09-23T10:26:36.173Z,60.86
2022-09-23T10:29:43.150Z,57.96
2022-09-23T10:32:48.792Z,55.34
2022-09-23T10:35:57.353Z,55.62
2022-09-23T10:39:17.592Z,52.18
2022-09-23T10:42:46.142Z,50.53
2022-09-23T10:46:09.104Z,53.10
2022-09-23T10:49:31.131Z,54.73
2022-09-23T10:52:52.501Z,53.48
2022-09-23T10:56:13.008Z,53.35
2022-09-23T10:59:29.196Z,54.05
2022-09-23T11:02:47.385Z,52.94
2022-09-23T11:06:01.837Z,53.14
2022-09-23T11:09:16.525Z,53.18
2022-09-23T11:12:26.885Z,53.50
2022-09-23T11:15:42.238Z,53.51
2022-09-23T11:18:50.939Z,54.51
2022-09-23T11:22:02.158Z,53.91
2022-09-23T11:25:18.980Z,53.88
2022-09-23T11:28:37.701Z,54.59
2022-09-23T11:31:49.937Z,53.74
2022-09-23T11:35:04.384Z,53.32
2022-09-23T11:38:12.365Z,52.76
2022-09-23T11:41:19.547Z,52.70
2022-09-23T11:44:27.983Z,53.09
2022-09-23T11:47:39.749Z,54.15
2022-09-23T11:50:50.354Z,53.87
2022-09-23T11:53:59.709Z,53.52
2022-09-23T11:57:07.731Z,52.53
2022-09-23T12:00:15.996Z,52.95
2022-09-23T12:03:35.873Z,54.26
2022-09-23T12:06:46.142Z,51.87
2022-09-23T12:09:58.409Z,53.56
2022-09-23T12:13:08.531Z,54.14
2022-09-23T12:16:31.192Z,52.44
2022-09-23T12:19:51.656Z,51.63
2022-09-23T12:23:04.144Z,50.59
2022-09-23T12:26:17.273Z,50.52
2022-09-23T12:29:25.631Z,50.38
2022-09-23T12:32:31.384Z,49.22
2022-09-23T12:35:40.067Z,47.35
2022-09-23T12:38:51.361Z,47.93
2022-09-23T12:41:58.717Z,48.24
2022-09-23T12:45:21.387Z,47.63
2022-09-23T12:48:44.416Z,48.10
2022-09-23T12:52:05.028Z,48.54
2022-09-23T12:55:24.375Z,48.64
2022-09-23T12:58:46.275Z,48.17
2022-09-23T13:01:52.270Z,47.33
2022-09-23T13:05:28.631Z,45.91
2022-09-23T13:08:37.606Z,44.54
2022-09-23T13:11:53.147Z,48.41
2022-09-23T13:15:03.557Z,48.31
2022-09-23T13:18:50.698Z,41.63
2022-09-23T13:22:09.179Z,42.31
2022-09-23T13:25:23.271Z,40.00
2022-09-23T13:28:31.026Z,41.49
2022-09-23T13:31:36.499Z,38.48
2022-09-23T13:34:44.240Z,39.93
2022-09-23T13:37:50.560Z,41.15
2022-09-23T13:40:59.822Z,41.26
2022-09-23T13:44:15.319Z,41.17
2022-09-23T13:47:21.063Z,39.82
2022-09-23T13:50:32.882Z,41.61
2022-09-23T13:53:41.352Z,42.56
2022-09-23T13:56:49.510Z,42.33
2022-09-23T13:59:54.887Z,41.38
2022-09-23T14:03:00.276Z,39.40
2022-09-23T14:06:08.538Z,38.53
2022-09-23T14:09:14.648Z,38.27
2022-09-23T14:12:22.433Z,40.17
2022-09-23T14:15:27.929Z,41.47
2022-09-23T14:18:35.809Z,42.16
2022-09-23T14:21:41.367Z,41.71
2022-09-23T14:24:47.309Z,42.20
2022-09-23T14:27:54.553Z,42.56
2022-09-23T14:31:03.702Z,42.94
2022-09-23T14:34:35.416Z,43.14
2022-09-23T14:38:01.510Z,43.97
2022-09-23T14:41:18.176Z,43.67
2022-09-23T14:44:25.144Z,43.97
2022-09-23T14:47:31.144Z,44.20
2022-09-23T14:50:48.487Z,44.25
2022-09-23T14:53:53.813Z,44.61
2022-09-23T14:56:59.170Z,44.72
2022-09-23T15:00:10.112Z,44.66
2022-09-23T15:03:16.337Z,44.22
2022-09-23T15:06:24.583Z,45.28
2022-09-23T15:09:31.521Z,45.53
2022-09-23T15:12:40.090Z,45.64
2022-09-23T15:15:45.565Z,45.79
2022-09-23T15:18:54.912Z,46.21
2022-09-23T15:22:02.896Z,46.22
2022-09-23T15:25:16.559Z,46.37
2022-09-23T15:28:23.732Z,46.49
2022-09-23T15:31:29.114Z,46.76
2022-09-23T15:34:34.345Z,47.12
2022-09-23T15:37:40.368Z,47.77
2022-09-23T15:40:45.687Z,47.26
2022-09-23T15:43:51.361Z,47.64
2022-09-23T15:46:59.228Z,47.27
2022-09-23T15:50:07.203Z,46.35
2022-09-23T15:53:15.921Z,45.65
2022-09-23T15:56:21.108Z,45.04
2022-09-23T15:59:26.368Z,45.26
2022-09-23T16:02:33.424Z,44.70
2022-09-23T16:05:40.138Z,44.96
2022-09-23T16:08:45.164Z,44.96
2022-09-23T16:11:52.026Z,44.59
2022-09-23T16:14:57.281Z,44.46
2022-09-23T16:18:02.572Z,44.66
2022-09-23T16:21:10.746Z,44.94
2022-09-23T16:24:21.705Z,45.32
2022-09-23T16:27:30.889Z,45.73
2022-09-23T16:30:35.977Z,46.20
2022-09-23T16:33:41.206Z,46.54
2022-09-23T16:36:47.613Z,46.89
2022-09-23T16:39:52.771Z,47.28
2022-09-23T16:42:58.432Z,47.75
2022-09-23T16:46:03.805Z,48.07
2022-09-23T16:49:12.239Z,48.55
2022-09-23T16:52:17.452Z,48.91
2022-09-23T16:55:25.712Z,49.38
2022-09-23T16:58:30.949Z,49.84
2022-09-23T17:01:54.128Z,50.28
2022-09-23T17:05:01.561Z,51.07
2022-09-23T17:08:08.751Z,51.29
2022-09-23T17:11:14.448Z,51.62
2022-09-23T17:14:21.203Z,52.05
2022-09-23T17:17:28.540Z,52.70
2022-09-23T17:20:34.446Z,53.82
2022-09-23T17:23:39.744Z,55.66
2022-09-23T17:26:49.367Z,54.91
2022-09-23T17:29:58.054Z,54.59
2022-09-23T17:33:03.644Z,54.77
2022-09-23T17:36:10.507Z,55.16
2022-09-23T17:39:18.856Z,55.58
2022-09-23T17:42:24.354Z,55.89
2022-09-23T17:45:30.221Z,56.74
2022-09-23T17:48:37.144Z,56.96
2022-09-23T17:51:42.681Z,57.05
2022-09-23T17:54:55.122Z,57.40
2022-09-23T17:58:00.606Z,58.38
2022-09-23T18:01:06.547Z,58.19
2022-09-23T18:04:11.888Z,58.62
2022-09-23T18:07:17.356Z,58.71
2022-09-23T18:10:23.279Z,59.40
2022-09-23T18:13:28.695Z,59.43
2022-09-23T18:16:35.768Z,60.06
2022-09-23T18:19:41.144Z,60.40
2022-09-23T18:22:46.655Z,60.87
2022-09-23T18:25:52.096Z,61.11
2022-09-23T18:29:01.556Z,60.98
2022-09-23T18:32:09.976Z,60.94
2022-09-23T18:35:17.827Z,60.96
2022-09-23T18:38:23.219Z,61.12
2022-09-23T18:41:28.727Z,61.26
2022-09-23T18:44:34.121Z,61.39
2022-09-23T18:47:56.600Z,61.56
2022-09-23T18:51:01.825Z,61.82
2022-09-23T18:54:08.067Z,62.14
2022-09-23T18:57:16.001Z,62.25
2022-09-23T19:00:21.354Z,62.28
2022-09-23T19:03:26.840Z,62.42
2022-09-23T19:06:32.953Z,67.36
2022-09-23T19:09:38.421Z,74.43
2022-09-23T19:12:43.807Z,73.03
2022-09-23T19:15:49.243Z,70.94
2022-09-23T19:18:55.166Z,68.35
2022-09-23T19:22:00.839Z,66.83
2022-09-23T19:25:06.935Z,64.81
2022-09-23T19:28:12.338Z,63.06
2022-09-23T19:31:18.345Z,61.82
2022-09-23T19:34:26.102Z,60.75
2022-09-23T19:37:31.639Z,59.27
2022-09-23T19:40:37.550Z,56.98
2022-09-23T19:43:42.821Z,57.40
2022-09-23T19:46:53.487Z,58.04
2022-09-23T19:50:01.239Z,58.01
2022-09-23T19:53:07.118Z,58.47
2022-09-23T19:56:14.446Z,58.91
2022-09-23T19:59:19.765Z,59.01
2022-09-23T20:02:25.460Z,58.88
2022-09-23T20:05:30.808Z,59.09
2022-09-23T20:08:37.806Z,59.22
2022-09-23T20:11:44.292Z,59.21
2022-09-23T20:14:51.451Z,59.45
2022-09-23T20:17:56.834Z,59.83
2022-09-23T20:21:02.144Z,60.03
2022-09-23T20:24:09.555Z,60.29
2022-09-23T20:27:15.630Z,60.64
2022-09-23T20:30:21.398Z,60.98
2022-09-23T20:33:26.754Z,61.19
2022-09-23T20:36:32.207Z,61.60
2022-09-23T20:39:37.560Z,61.86
2022-09-23T20:42:42.864Z,62.19
2022-09-23T20:45:52.277Z,64.01
2022-09-23T20:48:57.896Z,73.42
2022-09-23T20:52:03.856Z,74.92
2022-09-23T20:55:10.822Z,72.82
2022-09-23T20:58:19.171Z,70.64
2022-09-23T21:01:24.545Z,68.47
2022-09-23T21:04:30.047Z,66.79
2022-09-23T21:07:35.342Z,65.26
2022-09-23T21:10:42.360Z,63.97
2022-09-23T21:13:48.407Z,62.66
2022-09-23T21:16:54.802Z,61.84
2022-09-23T21:20:01.489Z,60.98
2022-09-23T21:23:07.483Z,60.12
2022-09-23T21:26:13.756Z,58.48
2022-09-23T21:29:19.260Z,56.68
2022-09-23T21:32:24.373Z,57.26
2022-09-23T21:35:29.618Z,57.90
2022-09-23T21:38:36.509Z,57.67
2022-09-23T21:41:42.317Z,57.43
2022-09-23T21:44:47.706Z,57.36
2022-09-23T21:47:54.255Z,58.16
2022-09-23T21:51:00.603Z,58.30
2022-09-23T21:54:07.281Z,58.50
2022-09-23T21:57:13.973Z,58.84
2022-09-23T22:00:19.321Z,60.04
2022-09-23T22:03:24.652Z,60.19
2022-09-23T22:06:30.560Z,61.31
2022-09-23T22:09:36.070Z,64.25
2022-09-23T22:12:41.433Z,67.06
2022-09-23T22:15:46.915Z,70.80
2022-09-23T22:18:55.239Z,71.28
2022-09-23T22:22:00.552Z,68.05
2022-09-23T22:25:06.357Z,64.62
2022-09-23T22:28:29.426Z,62.77
2022-09-23T22:31:52.681Z,61.33
2022-09-23T22:34:58.259Z,60.75
2022-09-23T22:38:03.551Z,60.15
2022-09-23T22:41:09.113Z,60.57
2022-09-23T22:44:14.443Z,58.16
2022-09-23T22:47:20.334Z,55.84
2022-09-23T22:50:25.615Z,56.44
2022-09-23T22:53:30.925Z,56.75
2022-09-23T22:56:36.368Z,56.15
2022-09-23T22:59:43.805Z,56.37
2022-09-23T23:02:49.066Z,56.81
2022-09-23T23:05:57.473Z,56.86
2022-09-23T23:09:06.977Z,57.31
2022-09-23T23:12:12.492Z,59.02
2022-09-23T23:15:17.845Z,61.27
2022-09-23T23:18:27.062Z,60.40
2022-09-23T23:21:32.817Z,60.61
2022-09-23T23:24:38.179Z,61.34
2022-09-23T23:27:43.611Z,61.48
2022-09-23T23:30:49.068Z,61.52
2022-09-23T23:33:54.757Z,61.84
2022-09-23T23:37:00.109Z,64.05
2022-09-23T23:40:05.944Z,67.50
2022-09-23T23:43:11.492Z,69.79
2022-09-23T23:46:18.344Z,71.48
2022-09-23T23:49:23.734Z,68.13
2022-09-23T23:52:28.905Z,66.11
2022-09-23T23:55:38.205Z,64.69
2022-09-23T23:58:43.872Z,62.62
